createdAt,value
2022-08-28T00:02:14.934Z,2.25
2022-08-28T00:04:43.843Z,3.45
2022-08-28T00:07:12.466Z,2.85
2022-08-28T00:09:40.475Z,4.13
2022-08-28T00:12:08.894Z,3.80
2022-08-28T00:14:38.397Z,3.53
2022-08-28T00:17:06.566Z,3.50
2022-08-28T00:19:38.511Z,4.63
2022-08-28T00:22:07.568Z,2.58
2022-08-28T00:24:36.865Z,3.40
2022-08-28T00:27:18.959Z,3.47
2022-08-28T00:29:48.567Z,3.75
2022-08-28T00:32:16.658Z,2.70
2022-08-28T00:34:44.775Z,2.92
2022-08-28T00:37:12.785Z,2.53
2022-08-28T00:39:40.885Z,3.55
2022-08-28T00:42:11.963Z,3.47
2022-08-28T00:44:40.073Z,3.45
2022-08-28T00:47:10.170Z,2.88
2022-08-28T00:49:46.259Z,3.05
2022-08-28T00:52:16.166Z,5.30
2022-08-28T00:54:59.042Z,4.00
2022-08-28T00:57:31.150Z,6.88
2022-08-28T00:59:59.801Z,3.67
2022-08-28T01:02:29.568Z,4.72
2022-08-28T01:04:57.784Z,4.32
2022-08-28T01:07:26.356Z,4.38
2022-08-28T01:09:56.011Z,4.53
2022-08-28T01:12:27.433Z,6.20
2022-08-28T01:15:00.066Z,5.15
2022-08-28T01:17:32.222Z,5.25
2022-08-28T01:20:03.147Z,5.35
2022-08-28T01:22:37.395Z,5.10
2022-08-28T01:25:10.515Z,4.25
2022-08-28T01:27:41.897Z,4.43
2022-08-28T01:30:11.971Z,4.63
2022-08-28T01:32:43.972Z,4.85
2022-08-28T01:35:17.620Z,4.50
2022-08-28T01:37:46.228Z,3.83
2022-08-28T01:40:23.037Z,6.22
2022-08-28T01:43:17.084Z,4.65
2022-08-28T01:45:48.029Z,4.65
2022-08-28T01:48:17.123Z,2.80
2022-08-28T01:50:45.517Z,4.95
2022-08-28T01:53:17.216Z,4.80
2022-08-28T01:55:46.922Z,3.70
2022-08-28T01:58:15.116Z,5.18
2022-08-28T02:00:43.547Z,5.90
2022-08-28T02:03:12.752Z,5.32
2022-08-28T02:05:44.292Z,6.13
2022-08-28T02:08:12.582Z,5.13
2022-08-28T02:10:43.592Z,4.88
2022-08-28T02:13:13.799Z,5.13
2022-08-28T02:15:44.113Z,6.15
2022-08-28T02:18:14.608Z,4.22
2022-08-28T02:20:43.130Z,6.13
2022-08-28T02:23:13.893Z,6.25
2022-08-28T02:25:42.859Z,6.03
2022-08-28T02:28:12.567Z,5.47
2022-08-28T02:30:42.785Z,6.15
2022-08-28T02:33:10.937Z,6.45
2022-08-28T02:35:40.416Z,5.20
2022-08-28T02:38:08.516Z,5.28
2022-08-28T02:40:37.235Z,7.18
2022-08-28T02:43:05.397Z,5.65
2022-08-28T02:45:35.313Z,6.20
2022-08-28T02:48:03.833Z,4.93
2022-08-28T02:50:33.000Z,6.55
2022-08-28T02:53:01.044Z,4.43
2022-08-28T02:55:33.616Z,5.43
2022-08-28T02:58:02.282Z,4.35
2022-08-28T03:00:30.319Z,6.05
2022-08-28T03:02:59.787Z,7.07
2022-08-28T03:05:28.020Z,5.80
2022-08-28T03:07:56.252Z,5.65
2022-08-28T03:10:24.832Z,6.25
2022-08-28T03:12:54.153Z,5.55
2022-08-28T03:15:22.370Z,5.35
2022-08-28T03:17:50.381Z,5.80
2022-08-28T03:20:20.520Z,5.85
2022-08-28T03:23:06.158Z,6.55
2022-08-28T03:25:34.391Z,6.18
2022-08-28T03:28:02.698Z,5.70
2022-08-28T03:30:30.870Z,7.30
2022-08-28T03:32:59.154Z,6.90
2022-08-28T03:35:28.531Z,7.28
2022-08-28T03:37:56.532Z,7.20
2022-08-28T03:40:24.698Z,5.32
2022-08-28T03:42:53.693Z,5.95
2022-08-28T03:45:22.538Z,6.45
2022-08-28T03:47:51.134Z,6.60
2022-08-28T03:50:19.804Z,5.30
2022-08-28T03:52:49.239Z,7.40
2022-08-28T03:55:18.896Z,6.90
2022-08-28T03:57:47.984Z,6.28
2022-08-28T04:00:17.078Z,6.18
2022-08-28T04:02:46.205Z,7.85
2022-08-28T04:05:15.779Z,5.07
2022-08-28T04:07:43.682Z,7.75
2022-08-28T04:10:13.357Z,5.70
2022-08-28T04:12:41.374Z,4.70
2022-08-28T04:15:10.950Z,7.63
2022-08-28T04:17:40.071Z,6.32
2022-08-28T04:20:09.594Z,7.75
2022-08-28T04:22:38.255Z,6.63
2022-08-28T04:25:08.132Z,7.10
2022-08-28T04:27:37.368Z,5.80
2022-08-28T04:30:06.584Z,6.07
2022-08-28T04:32:39.211Z,5.38
2022-08-28T04:35:09.731Z,6.30
2022-08-28T04:37:41.005Z,5.88
2022-08-28T04:40:11.126Z,6.10
2022-08-28T04:42:41.097Z,5.55
2022-08-28T04:45:09.695Z,6.47
2022-08-28T04:47:38.868Z,5.65
2022-08-28T04:50:08.587Z,6.55
2022-08-28T04:52:36.660Z,5.50
2022-08-28T04:55:05.787Z,6.40
2022-08-28T04:57:36.365Z,6.03
2022-08-28T05:00:09.102Z,5.30
2022-08-28T05:02:37.486Z,5.40
2022-08-28T05:05:06.169Z,7.43
2022-08-28T05:07:35.170Z,6.10
2022-08-28T05:10:03.958Z,5.25
2022-08-28T05:12:32.620Z,6.25
2022-08-28T05:15:10.879Z,5.47
2022-08-28T05:17:40.308Z,5.55
2022-08-28T05:20:09.288Z,4.85
2022-08-28T05:22:37.480Z,4.40
2022-08-28T05:25:06.300Z,6.78
2022-08-28T05:27:35.427Z,4.82
2022-08-28T05:30:03.747Z,6.00
2022-08-28T05:32:31.911Z,5.22
2022-08-28T05:35:01.544Z,5.13
2022-08-28T05:37:29.614Z,6.45
2022-08-28T05:39:57.861Z,4.75
2022-08-28T05:42:30.599Z,5.35
2022-08-28T05:45:00.012Z,5.40
2022-08-28T05:47:28.251Z,5.38
2022-08-28T05:49:56.385Z,4.72
2022-08-28T05:52:26.098Z,6.80
2022-08-28T05:54:54.119Z,6.97
2022-08-28T05:57:22.211Z,5.15
2022-08-28T05:59:51.244Z,4.60
2022-08-28T06:02:19.260Z,5.60
2022-08-28T06:04:49.017Z,6.68
2022-08-28T06:07:17.468Z,6.35
2022-08-28T06:09:46.906Z,5.35
2022-08-28T06:12:15.658Z,5.03
2022-08-28T06:14:43.714Z,5.15
2022-08-28T06:17:12.909Z,5.07
2022-08-28T06:19:41.778Z,6.18
2022-08-28T06:22:12.219Z,4.50
2022-08-28T06:24:40.331Z,6.40
2022-08-28T06:27:09.812Z,3.95
2022-08-28T06:29:44.775Z,4.30
2022-08-28T06:32:13.365Z,4.28
2022-08-28T06:34:41.720Z,4.72
2022-08-28T06:37:10.368Z,4.03
2022-08-28T06:39:38.544Z,5.10
2022-08-28T06:42:06.919Z,6.47
2022-08-28T06:44:38.261Z,3.90
2022-08-28T06:47:06.409Z,5.70
2022-08-28T06:49:35.704Z,6.35
2022-08-28T06:52:04.145Z,5.20
2022-08-28T06:54:32.204Z,4.78
2022-08-28T06:57:00.348Z,5.47
2022-08-28T06:59:28.541Z,5.20
2022-08-28T07:01:58.594Z,5.63
2022-08-28T07:04:27.690Z,5.07
2022-08-28T07:06:55.712Z,5.43
2022-08-28T07:09:24.693Z,6.70
2022-08-28T07:11:53.053Z,4.35
2022-08-28T07:14:21.269Z,4.78
2022-08-28T07:16:49.292Z,5.30
2022-08-28T07:19:18.680Z,4.82
2022-08-28T07:21:48.079Z,7.95
2022-08-28T07:24:17.922Z,6.82
2022-08-28T07:26:48.063Z,4.00
2022-08-28T07:29:16.110Z,5.32
2022-08-28T07:31:46.337Z,6.28
2022-08-28T07:34:16.673Z,4.35
2022-08-28T07:36:46.403Z,5.35
2022-08-28T07:39:16.060Z,4.93
2022-08-28T07:41:44.177Z,5.90
2022-08-28T07:44:31.945Z,4.75
2022-08-28T07:47:02.312Z,6.80
2022-08-28T07:49:31.418Z,4.95
2022-08-28T07:52:01.343Z,4.10
2022-08-28T07:54:29.725Z,5.53
2022-08-28T07:56:57.841Z,3.88
2022-08-28T07:59:26.147Z,7.10
2022-08-28T08:01:54.201Z,5.75
2022-08-28T08:04:24.116Z,5.75
2022-08-28T08:06:57.756Z,4.20
2022-08-28T08:09:28.640Z,4.15
2022-08-28T08:11:57.683Z,4.10
2022-08-28T08:14:26.852Z,4.30
2022-08-28T08:16:55.532Z,5.82
2022-08-28T08:19:23.701Z,4.88
2022-08-28T08:21:55.322Z,6.60
2022-08-28T08:24:26.579Z,4.10
2022-08-28T08:26:59.729Z,4.80
2022-08-28T08:29:31.491Z,4.75
2022-08-28T08:32:06.009Z,5.47
2022-08-28T08:34:35.670Z,4.53
2022-08-28T08:37:06.025Z,4.47
2022-08-28T08:39:35.098Z,6.97
2022-08-28T08:42:10.229Z,7.07
2022-08-28T08:44:42.697Z,5.15
2022-08-28T08:49:51.077Z,4.63
2022-08-28T08:52:37.411Z,6.22
2022-08-28T08:55:23.396Z,4.03
2022-08-28T08:58:00.234Z,4.78
2022-08-28T09:00:30.799Z,4.43
2022-08-28T09:03:07.806Z,4.15
2022-08-28T09:05:48.636Z,4.35
2022-08-28T09:08:31.398Z,4.93
2022-08-28T09:11:08.177Z,3.83
2022-08-28T09:13:50.727Z,4.55
2022-08-28T09:16:27.978Z,6.15
2022-08-28T09:18:59.146Z,4.55
2022-08-28T09:21:30.206Z,4.47
2022-08-28T09:24:05.761Z,5.85
2022-08-28T09:26:36.339Z,5.38
2022-08-28T09:29:09.577Z,4.35
2022-08-28T09:31:41.167Z,6.90
2022-08-28T09:34:26.640Z,5.27
2022-08-28T09:36:57.149Z,4.03
2022-08-28T09:39:28.506Z,4.82
2022-08-28T09:42:24.574Z,3.67
2022-08-28T09:44:57.505Z,4.70
2022-08-28T09:47:49.436Z,5.20
2022-08-28T09:50:29.817Z,4.97
2022-08-28T09:53:00.944Z,5.93
2022-08-28T09:55:37.298Z,6.88
2022-08-28T09:58:06.584Z,5.43
2022-08-28T10:00:42.093Z,4.65
2022-08-28T10:03:16.667Z,3.92
2022-08-28T10:05:57.560Z,3.90
2022-08-28T10:08:41.054Z,4.90
2022-08-28T10:11:20.610Z,3.83
2022-08-28T10:13:58.422Z,4.93
2022-08-28T10:16:34.790Z,5.93
2022-08-28T10:19:10.029Z,6.70
2022-08-28T10:21:46.378Z,5.25
2022-08-28T10:24:28.660Z,4.00
2022-08-28T10:27:09.321Z,4.97
2022-08-28T10:29:49.623Z,3.33
2022-08-28T10:32:40.399Z,3.92
2022-08-28T10:35:14.987Z,4.70
2022-08-28T10:37:55.066Z,4.75
2022-08-28T10:40:27.692Z,4.85
2022-08-28T10:43:03.504Z,3.47
2022-08-28T10:45:34.303Z,5.60
2022-08-28T10:48:10.238Z,3.10
2022-08-28T10:50:45.174Z,3.45
2022-08-28T10:53:19.232Z,3.63
2022-08-28T10:55:55.137Z,4.47
2022-08-28T10:58:26.298Z,4.40
2022-08-28T11:00:57.960Z,4.50
2022-08-28T11:03:36.691Z,4.65
2022-08-28T11:06:11.807Z,3.65
2022-08-28T11:08:40.799Z,3.45
2022-08-28T11:11:14.848Z,4.07
2022-08-28T11:13:54.687Z,4.22
2022-08-28T11:16:25.793Z,3.83
2022-08-28T11:19:20.994Z,3.72
2022-08-28T11:21:53.235Z,4.53
2022-08-28T11:24:33.603Z,2.75
2022-08-28T11:27:17.795Z,4.13
2022-08-28T11:30:27.729Z,3.63
2022-08-28T11:32:59.781Z,6.15
2022-08-28T11:35:51.519Z,3.40
2022-08-28T11:38:53.392Z,4.07
2022-08-28T11:41:24.454Z,5.53
2022-08-28T11:44:13.512Z,4.45
2022-08-28T11:46:43.931Z,3.20
2022-08-28T11:49:43.517Z,3.40
2022-08-28T11:52:34.115Z,3.88
2022-08-28T11:55:14.961Z,3.75
2022-08-28T11:57:54.380Z,4.55
2022-08-28T12:00:29.132Z,4.60
2022-08-28T12:03:11.027Z,2.88
2022-08-28T12:05:49.793Z,3.60
2022-08-28T12:08:54.983Z,2.55
2022-08-28T12:11:56.731Z,3.92
2022-08-28T12:15:08.540Z,4.17
2022-08-28T12:17:48.802Z,3.55
2022-08-28T12:20:35.154Z,3.30
2022-08-28T12:23:06.480Z,3.60
2022-08-28T12:25:39.705Z,4.83
2022-08-28T12:28:26.772Z,4.97
2022-08-28T12:31:11.800Z,3.38
2022-08-28T12:33:48.410Z,3.00
2022-08-28T12:36:26.508Z,4.00
2022-08-28T12:38:57.992Z,3.65
2022-08-28T12:41:26.286Z,3.75
2022-08-28T12:43:59.391Z,2.58
2022-08-28T12:46:31.027Z,2.85
2022-08-28T12:49:03.869Z,4.28
2022-08-28T12:51:34.420Z,4.53
2022-08-28T12:54:05.245Z,3.60
2022-08-28T12:56:36.971Z,3.33
2022-08-28T12:59:33.922Z,3.03
2022-08-28T13:02:05.374Z,3.80
2022-08-28T13:04:36.871Z,4.32
2022-08-28T13:07:12.052Z,4.27
2022-08-28T13:09:47.702Z,3.92
2022-08-28T13:12:22.210Z,3.83
2022-08-28T13:15:02.363Z,3.85
2022-08-28T13:17:49.199Z,3.40
2022-08-28T13:20:34.435Z,4.15
2022-08-28T13:23:03.109Z,3.92
2022-08-28T13:25:34.848Z,3.17
2022-08-28T13:28:06.280Z,4.13
2022-08-28T13:30:36.592Z,3.00
2022-08-28T13:33:12.931Z,4.47
2022-08-28T13:35:42.192Z,4.22
2022-08-28T13:38:13.125Z,2.35
2022-08-28T13:40:58.344Z,2.97
2022-08-28T13:43:30.449Z,4.10
2022-08-28T13:45:59.825Z,2.25
2022-08-28T13:48:29.275Z,4.07
2022-08-28T13:51:03.142Z,3.63
2022-08-28T13:53:33.617Z,4.88
2022-08-28T13:56:02.750Z,2.70
2022-08-28T13:58:30.732Z,2.60
2022-08-28T14:01:00.769Z,3.42
2022-08-28T14:03:37.854Z,4.07
2022-08-28T14:06:11.964Z,4.53
2022-08-28T14:08:41.136Z,3.05
2022-08-28T14:11:12.647Z,3.22
2022-08-28T14:13:46.973Z,3.78
2022-08-28T14:16:26.078Z,3.03
2022-08-28T14:18:54.794Z,2.55
2022-08-28T14:21:24.501Z,2.80
2022-08-28T14:23:52.686Z,3.63
2022-08-28T14:26:21.090Z,2.95
2022-08-28T14:28:49.291Z,3.53
2022-08-28T14:31:17.595Z,4.32
2022-08-28T14:33:47.307Z,3.20
2022-08-28T14:36:16.763Z,3.20
2022-08-28T14:38:45.060Z,4.05
2022-08-28T14:41:14.877Z,4.00
2022-08-28T14:43:43.412Z,3.75
2022-08-28T14:46:16.347Z,3.00
2022-08-28T14:48:44.466Z,2.25
2022-08-28T14:51:13.800Z,2.78
2022-08-28T14:53:42.163Z,3.85
2022-08-28T14:56:10.961Z,4.25
2022-08-28T14:58:39.577Z,3.38
2022-08-28T15:01:09.149Z,3.67
2022-08-28T15:03:37.334Z,3.50
2022-08-28T15:06:08.873Z,3.35
2022-08-28T15:08:38.617Z,3.75
2022-08-28T15:11:07.414Z,3.42
2022-08-28T15:13:35.742Z,3.17
2022-08-28T15:16:06.054Z,3.55
2022-08-28T15:18:45.791Z,3.83
2022-08-28T15:21:18.174Z,3.58
2022-08-28T15:26:16.113Z,3.88
2022-08-28T15:28:55.958Z,3.90
2022-08-28T15:31:24.668Z,3.20
2022-08-28T15:33:53.467Z,3.28
2022-08-28T15:36:21.661Z,2.53
2022-08-28T15:39:09.358Z,3.63
2022-08-28T15:41:38.516Z,4.10
2022-08-28T15:44:06.904Z,3.53
2022-08-28T15:46:36.644Z,3.50
2022-08-28T15:49:07.888Z,5.68
2022-08-28T15:51:37.525Z,2.80
2022-08-28T15:54:07.618Z,4.00
2022-08-28T15:56:35.786Z,2.80
2022-08-28T15:59:04.012Z,4.32
2022-08-28T16:01:32.121Z,2.40
2022-08-28T16:04:00.169Z,2.38
2022-08-28T16:06:29.151Z,4.20
2022-08-28T16:08:57.535Z,3.75
2022-08-28T16:11:27.744Z,1.90
2022-08-28T16:14:00.577Z,2.35
2022-08-28T16:16:28.745Z,2.80
2022-08-28T16:18:58.114Z,4.03
2022-08-28T16:21:28.027Z,2.13
2022-08-28T16:23:56.586Z,2.17
2022-08-28T16:26:27.134Z,2.03
2022-08-28T16:29:00.328Z,3.83
2022-08-28T16:31:28.989Z,2.90
2022-08-28T16:33:57.288Z,2.63
2022-08-28T16:36:26.232Z,2.58
2022-08-28T16:39:00.546Z,2.05
2022-08-28T16:41:33.686Z,2.58
2022-08-28T16:44:01.963Z,3.08
2022-08-28T16:46:30.737Z,2.50
2022-08-28T16:48:59.600Z,2.10
2022-08-28T16:51:29.295Z,2.28
2022-08-28T16:53:58.372Z,5.32
2022-08-28T16:56:26.748Z,6.18
2022-08-28T16:58:57.054Z,12.10
2022-08-28T17:01:25.441Z,7.10
2022-08-28T17:03:54.773Z,5.72
2022-08-28T17:06:25.596Z,5.00
2022-08-28T17:08:57.178Z,4.65
2022-08-28T17:11:27.597Z,4.90
2022-08-28T17:13:57.390Z,2.40
2022-08-28T17:16:27.483Z,2.90
2022-08-28T17:18:56.095Z,2.55
2022-08-28T17:21:42.233Z,4.60
2022-08-28T17:24:12.282Z,3.25
2022-08-28T17:26:41.142Z,3.53
2022-08-28T17:29:12.042Z,2.20
2022-08-28T17:31:41.039Z,2.50
2022-08-28T17:34:09.341Z,2.78
2022-08-28T17:36:38.485Z,2.30
2022-08-28T17:39:10.133Z,2.67
2022-08-28T17:41:39.320Z,2.65
2022-08-28T17:44:07.571Z,3.00
2022-08-28T17:46:38.186Z,2.70
2022-08-28T17:49:07.694Z,2.70
2022-08-28T17:51:43.607Z,3.17
2022-08-28T17:54:14.174Z,2.67
2022-08-28T17:56:42.863Z,3.67
2022-08-28T17:59:11.200Z,2.80
2022-08-28T18:01:42.385Z,2.75
2022-08-28T18:04:11.316Z,4.25
2022-08-28T18:06:40.030Z,2.33
2022-08-28T18:09:09.922Z,2.70
2022-08-28T18:11:38.710Z,3.28
2022-08-28T18:14:07.632Z,2.85
2022-08-28T18:16:38.067Z,3.58
2022-08-28T18:19:09.734Z,2.08
2022-08-28T18:21:39.397Z,3.40
2022-08-28T18:24:08.018Z,4.10
2022-08-28T18:26:36.652Z,4.55
2022-08-28T18:29:04.956Z,2.83
2022-08-28T18:31:33.364Z,2.22
2022-08-28T18:34:01.533Z,4.70
2022-08-28T18:36:31.074Z,3.33
2022-08-28T18:38:59.170Z,3.35
2022-08-28T18:41:43.020Z,3.03
2022-08-28T18:44:13.313Z,2.25
2022-08-28T18:46:41.638Z,2.67
2022-08-28T18:49:09.983Z,3.17
2022-08-28T18:51:39.452Z,3.38
2022-08-28T18:54:07.687Z,3.05
2022-08-28T18:56:36.160Z,3.55
2022-08-28T18:59:06.843Z,3.45
2022-08-28T19:01:35.005Z,2.28
2022-08-28T19:04:03.330Z,5.30
2022-08-28T19:06:31.421Z,2.88
2022-08-28T19:09:01.463Z,3.72
2022-08-28T19:11:31.464Z,3.50
2022-08-28T19:14:03.581Z,3.10
2022-08-28T19:16:35.309Z,3.78
2022-08-28T19:19:03.613Z,2.75
2022-08-28T19:21:34.894Z,2.85
2022-08-28T19:24:05.252Z,2.60
2022-08-28T19:26:33.702Z,2.85
2022-08-28T19:29:01.849Z,3.30
2022-08-28T19:31:30.093Z,3.40
2022-08-28T19:33:58.619Z,4.80
2022-08-28T19:36:29.520Z,3.65
2022-08-28T19:38:58.495Z,3.92
2022-08-28T19:41:29.732Z,3.30
2022-08-28T19:43:58.144Z,4.30
2022-08-28T19:46:26.222Z,3.15
2022-08-28T19:48:56.442Z,3.08
2022-08-28T19:51:25.838Z,3.08
2022-08-28T19:53:58.251Z,2.85
2022-08-28T19:56:29.839Z,3.53
2022-08-28T19:59:00.808Z,3.65
2022-08-28T20:01:31.163Z,3.35
2022-08-28T20:04:00.612Z,2.58
2022-08-28T20:06:31.505Z,2.30
2022-08-28T20:09:00.264Z,5.55
2022-08-28T20:11:30.753Z,3.40
2022-08-28T20:14:04.301Z,3.45
2022-08-28T20:16:35.940Z,4.60
2022-08-28T20:19:04.886Z,3.38
2022-08-28T20:21:37.857Z,4.22
2022-08-28T20:24:07.628Z,4.30
2022-08-28T20:26:37.510Z,3.10
2022-08-28T20:29:07.329Z,3.33
2022-08-28T20:31:41.099Z,4.13
2022-08-28T20:34:10.037Z,3.22
2022-08-28T20:36:38.924Z,3.72
2022-08-28T20:39:09.322Z,3.20
2022-08-28T20:41:43.088Z,3.58
2022-08-28T20:44:13.169Z,3.15
2022-08-28T20:46:42.265Z,3.60
2022-08-28T20:49:10.677Z,2.90
2022-08-28T20:51:56.448Z,3.58
2022-08-28T20:54:28.862Z,3.65
2022-08-28T20:57:01.804Z,3.65
2022-08-28T20:59:39.661Z,3.88
2022-08-28T21:02:11.108Z,3.28
2022-08-28T21:04:40.524Z,3.40
2022-08-28T21:07:08.930Z,4.88
2022-08-28T21:10:04.607Z,2.65
2022-08-28T21:12:29.674Z,2.53
2022-08-28T21:14:57.679Z,3.30
2022-08-28T21:17:29.702Z,4.18
2022-08-28T21:20:00.498Z,3.50
2022-08-28T21:22:30.265Z,5.28
2022-08-28T21:24:58.268Z,3.45
2022-08-28T21:27:28.355Z,3.90
2022-08-28T21:29:58.498Z,3.83
2022-08-28T21:32:26.869Z,3.72
2022-08-28T21:34:55.253Z,4.60
2022-08-28T21:37:23.894Z,3.53
2022-08-28T21:39:52.160Z,3.00
2022-08-28T21:42:22.051Z,3.45
2022-08-28T21:44:52.242Z,3.50
2022-08-28T21:47:21.406Z,2.60
2022-08-28T21:49:50.114Z,3.42
2022-08-28T21:52:18.368Z,2.90
2022-08-28T21:54:46.569Z,3.40
2022-08-28T21:57:14.796Z,3.45
2022-08-28T21:59:43.833Z,3.50
2022-08-28T22:02:13.200Z,3.92
2022-08-28T22:04:41.250Z,2.97
2022-08-28T22:07:11.392Z,3.40
2022-08-28T22:09:39.577Z,2.72
2022-08-28T22:12:09.033Z,3.55
2022-08-28T22:14:37.380Z,4.25
2022-08-28T22:17:10.663Z,2.83
2022-08-28T22:19:41.045Z,3.67
2022-08-28T22:22:27.336Z,3.47
2022-08-28T22:24:57.257Z,4.03
2022-08-28T22:27:25.436Z,2.88
2022-08-28T22:29:53.557Z,3.10
2022-08-28T22:32:25.458Z,2.40
2022-08-28T22:34:55.763Z,3.20
2022-08-28T22:37:25.722Z,3.92
2022-08-28T22:39:53.843Z,3.10
2022-08-28T22:42:23.066Z,3.03
2022-08-28T22:44:51.107Z,2.88
2022-08-28T22:47:19.230Z,3.20
2022-08-28T22:49:47.410Z,3.58
2022-08-28T22:52:17.527Z,2.83
2022-08-28T22:54:45.642Z,3.17
2022-08-28T22:57:14.922Z,3.08
2022-08-28T22:59:42.957Z,4.47
2022-08-28T23:02:12.148Z,3.85
2022-08-28T23:04:44.874Z,1.88
2022-08-28T23:07:21.633Z,2.00
2022-08-28T23:09:49.642Z,2.50
2022-08-28T23:12:18.178Z,2.72
2022-08-28T23:14:48.563Z,3.13
2022-08-28T23:17:17.168Z,2.83
2022-08-28T23:19:47.734Z,2.20
2022-08-28T23:22:16.392Z,3.13
2022-08-28T23:24:46.941Z,2.53
2022-08-28T23:27:35.241Z,3.03
2022-08-28T23:30:03.218Z,1.58
2022-08-28T23:32:31.195Z,2.00
2022-08-28T23:35:02.094Z,2.80
2022-08-28T23:37:35.528Z,2.03
2022-08-28T23:40:06.099Z,3.20
2022-08-28T23:42:34.284Z,3.28
2022-08-28T23:45:02.207Z,2.20
2022-08-28T23:47:33.315Z,2.78
2022-08-28T23:50:01.484Z,2.30
2022-08-28T23:52:30.717Z,2.65
2022-08-28T23:55:00.176Z,2.63
2022-08-28T23:57:30.673Z,2.20
2022-08-28T23:59:58.707Z,3.33
